createdAt,value
2023-03-18T00:01:13.212Z,18.14
2023-03-18T00:03:41.620Z,18.42
2023-03-18T00:06:15.924Z,18.22
2023-03-18T00:08:45.417Z,18.02
2023-03-18T00:11:14.575Z,17.87
2023-03-18T00:13:43.544Z,18.01
2023-03-18T00:16:20.058Z,18.14
2023-03-18T00:18:48.913Z,18.20
2023-03-18T00:21:17.078Z,18.09
2023-03-18T00:23:45.688Z,18.23
2023-03-18T00:26:15.985Z,18.37
2023-03-18T00:28:44.352Z,18.05
2023-03-18T00:31:13.935Z,17.99
2023-03-18T00:33:45.889Z,18.19
2023-03-18T00:36:16.800Z,18.34
2023-03-18T00:38:46.270Z,18.54
2023-03-18T00:41:16.317Z,18.46
2023-03-18T00:43:46.968Z,18.46
2023-03-18T00:46:18.161Z,18.59
2023-03-18T00:48:51.301Z,18.53
2023-03-18T00:51:20.699Z,18.32
2023-03-18T00:53:56.145Z,18.26
2023-03-18T00:56:25.821Z,18.43
2023-03-18T00:58:54.309Z,18.69
2023-03-18T01:01:23.470Z,18.88
2023-03-18T01:03:53.509Z,18.82
2023-03-18T01:06:25.697Z,18.80
2023-03-18T01:08:54.338Z,18.54
2023-03-18T01:11:23.293Z,18.63
2023-03-18T01:13:51.839Z,18.64
2023-03-18T01:16:21.085Z,18.59
2023-03-18T01:18:49.168Z,18.49
2023-03-18T01:21:19.145Z,18.66
2023-03-18T01:23:51.501Z,18.64
2023-03-18T01:26:19.849Z,18.54
2023-03-18T01:28:48.132Z,18.59
2023-03-18T01:31:16.455Z,18.48
2023-03-18T01:33:46.020Z,18.54
2023-03-18T01:36:16.015Z,18.30
2023-03-18T01:38:44.954Z,18.22
2023-03-18T01:41:17.409Z,18.23
2023-03-18T01:43:46.209Z,18.56
2023-03-18T01:46:34.961Z,18.15
2023-03-18T01:49:07.935Z,18.32
2023-03-18T01:51:36.110Z,18.29
2023-03-18T01:54:05.578Z,18.51
2023-03-18T01:56:34.320Z,18.68
2023-03-18T01:59:03.730Z,18.49
2023-03-18T02:02:01.421Z,18.35
2023-03-18T02:04:35.333Z,18.55
2023-03-18T02:07:04.360Z,18.61
2023-03-18T02:09:32.772Z,18.62
2023-03-18T02:12:03.931Z,18.43
2023-03-18T02:14:32.789Z,18.37
2023-03-18T02:17:03.499Z,18.28
2023-03-18T02:20:03.197Z,18.07
2023-03-18T02:22:38.482Z,18.16
2023-03-18T02:25:31.983Z,18.00
2023-03-18T02:28:06.293Z,18.09
2023-03-18T02:30:44.096Z,18.16
2023-03-18T02:33:16.083Z,18.35
2023-03-18T02:35:50.478Z,18.19
2023-03-18T02:38:20.020Z,17.97
2023-03-18T02:40:49.087Z,18.10
2023-03-18T02:43:24.711Z,18.27
2023-03-18T02:46:30.031Z,18.28
2023-03-18T02:48:59.978Z,18.37
2023-03-18T02:51:28.334Z,18.31
2023-03-18T02:54:01.693Z,18.46
2023-03-18T02:56:30.172Z,18.55
2023-03-18T02:58:58.593Z,18.46
2023-03-18T03:01:28.005Z,18.54
2023-03-18T03:03:56.693Z,18.65
2023-03-18T03:06:25.680Z,18.43
2023-03-18T03:08:54.597Z,18.44
2023-03-18T03:11:23.770Z,18.25
2023-03-18T03:13:52.046Z,18.55
2023-03-18T03:16:20.813Z,18.82
2023-03-18T03:18:49.010Z,18.70
2023-03-18T03:21:20.773Z,18.39
2023-03-18T03:23:50.166Z,18.12
2023-03-18T03:26:21.220Z,18.21
2023-03-18T03:28:49.855Z,18.45
2023-03-18T03:31:18.229Z,18.68
2023-03-18T03:33:46.431Z,18.88
2023-03-18T03:36:16.487Z,18.89
2023-03-18T03:38:47.211Z,18.78
2023-03-18T03:41:16.024Z,18.82
2023-03-18T03:43:44.976Z,18.84
2023-03-18T03:46:13.203Z,18.76
2023-03-18T03:48:42.653Z,18.87
2023-03-18T03:51:15.101Z,18.66
2023-03-18T03:53:46.280Z,18.58
2023-03-18T03:56:15.756Z,18.70
2023-03-18T03:58:45.926Z,18.84
2023-03-18T04:01:14.480Z,18.57
2023-03-18T04:03:44.938Z,18.81
2023-03-18T04:06:13.495Z,18.81
2023-03-18T04:08:47.729Z,18.86
2023-03-18T04:11:17.750Z,18.86
2023-03-18T04:13:46.712Z,19.00
2023-03-18T04:16:19.944Z,18.76
2023-03-18T04:18:50.851Z,18.89
2023-03-18T04:21:22.278Z,18.81
2023-03-18T04:23:55.655Z,19.00
2023-03-18T04:26:24.273Z,18.66
2023-03-18T04:28:57.750Z,18.88
2023-03-18T04:31:25.981Z,18.80
2023-03-18T04:33:55.548Z,18.62
2023-03-18T04:36:24.641Z,18.44
2023-03-18T04:38:53.227Z,18.31
2023-03-18T04:41:22.945Z,18.06
2023-03-18T04:43:51.567Z,17.99
2023-03-18T04:46:19.884Z,17.84
2023-03-18T04:48:49.545Z,17.89
2023-03-18T04:51:18.870Z,18.05
2023-03-18T04:53:49.324Z,18.34
2023-03-18T04:56:19.559Z,18.52
2023-03-18T04:58:50.951Z,18.37
2023-03-18T05:01:22.373Z,18.60
2023-03-18T05:03:51.190Z,18.87
2023-03-18T05:06:25.368Z,18.70
2023-03-18T05:09:00.523Z,18.91
2023-03-18T05:11:33.831Z,19.03
2023-03-18T05:14:08.255Z,18.91
2023-03-18T05:16:42.555Z,18.91
2023-03-18T05:19:14.029Z,18.97
2023-03-18T05:21:49.116Z,18.73
2023-03-18T05:24:19.305Z,18.56
2023-03-18T05:26:52.651Z,18.58
2023-03-18T05:29:24.087Z,18.73
2023-03-18T05:32:11.388Z,19.01
2023-03-18T05:34:40.804Z,19.11
2023-03-18T05:37:11.684Z,19.24
2023-03-18T05:39:45.069Z,19.42
2023-03-18T05:42:15.276Z,19.44
2023-03-18T05:44:47.121Z,19.39
2023-03-18T05:47:15.922Z,19.15
2023-03-18T05:49:52.890Z,19.39
2023-03-18T05:52:24.755Z,19.35
2023-03-18T05:54:55.738Z,19.13
2023-03-18T05:57:28.505Z,19.29
2023-03-18T06:00:00.974Z,19.30
2023-03-18T06:02:32.870Z,19.28
2023-03-18T06:05:01.574Z,19.27
2023-03-18T06:07:30.670Z,19.21
2023-03-18T06:10:01.142Z,19.35
2023-03-18T06:12:30.664Z,19.41
2023-03-18T06:14:59.727Z,19.39
2023-03-18T06:17:28.115Z,19.33
2023-03-18T06:19:59.189Z,19.48
2023-03-18T06:22:28.149Z,19.67
2023-03-18T06:25:01.424Z,19.60
2023-03-18T06:27:30.499Z,19.57
2023-03-18T06:30:08.461Z,19.52
2023-03-18T06:32:38.094Z,19.72
2023-03-18T06:35:11.015Z,20.14
2023-03-18T06:37:40.205Z,19.99
2023-03-18T06:40:09.537Z,20.25
2023-03-18T06:42:38.057Z,20.14
2023-03-18T06:45:13.759Z,20.24
2023-03-18T06:47:51.469Z,20.79
2023-03-18T06:50:20.767Z,20.96
2023-03-18T06:52:49.631Z,20.80
2023-03-18T06:55:20.068Z,21.22
2023-03-18T06:57:48.515Z,20.99
2023-03-18T07:00:19.977Z,20.81
2023-03-18T07:02:49.825Z,20.72
2023-03-18T07:05:20.733Z,20.81
2023-03-18T07:07:51.002Z,20.40
2023-03-18T07:10:24.574Z,20.26
2023-03-18T07:12:58.684Z,20.18
2023-03-18T07:15:27.469Z,20.13
2023-03-18T07:17:57.080Z,20.50
2023-03-18T07:20:25.990Z,20.85
2023-03-18T07:22:54.274Z,20.71
2023-03-18T07:25:23.056Z,20.78
2023-03-18T07:27:53.362Z,20.83
2023-03-18T07:30:21.947Z,20.87
2023-03-18T07:32:50.891Z,20.64
2023-03-18T07:35:19.160Z,20.52
2023-03-18T07:37:48.388Z,20.66
2023-03-18T07:40:16.905Z,20.63
2023-03-18T07:42:46.503Z,20.93
2023-03-18T07:45:17.329Z,21.35
2023-03-18T07:47:47.218Z,21.19
2023-03-18T07:50:16.298Z,21.08
2023-03-18T07:52:48.403Z,21.29
2023-03-18T07:55:16.777Z,21.60
2023-03-18T07:57:47.517Z,21.78
2023-03-18T08:00:17.022Z,21.82
2023-03-18T08:02:45.473Z,21.87
2023-03-18T08:05:16.381Z,22.07
2023-03-18T08:07:45.295Z,22.08
2023-03-18T08:10:15.081Z,22.11
2023-03-18T08:12:53.054Z,21.95
2023-03-18T08:15:22.588Z,22.04
2023-03-18T08:17:54.248Z,21.86
2023-03-18T08:20:23.310Z,21.62
2023-03-18T08:22:52.031Z,22.08
2023-03-18T08:25:23.793Z,21.96
2023-03-18T08:27:52.559Z,21.87
2023-03-18T08:30:20.705Z,21.79
2023-03-18T08:32:49.371Z,21.87
2023-03-18T08:35:20.244Z,22.17
2023-03-18T08:37:51.227Z,21.95
2023-03-18T08:40:20.533Z,22.03
2023-03-18T08:42:49.240Z,21.81
2023-03-18T08:45:17.872Z,21.73
2023-03-18T08:47:45.886Z,21.59
2023-03-18T08:50:14.632Z,21.67
2023-03-18T08:52:43.672Z,21.55
2023-03-18T08:55:11.663Z,21.62
2023-03-18T08:57:40.205Z,21.84
2023-03-18T09:00:10.089Z,21.48
2023-03-18T09:02:44.401Z,21.51
2023-03-18T09:05:13.908Z,21.43
2023-03-18T09:07:41.947Z,21.61
2023-03-18T09:10:13.156Z,21.49
2023-03-18T09:12:42.432Z,21.44
2023-03-18T09:15:11.506Z,21.31
2023-03-18T09:17:56.548Z,21.39
2023-03-18T09:20:28.611Z,21.31
2023-03-18T09:23:00.250Z,21.39
2023-03-18T09:25:28.583Z,21.62
2023-03-18T09:27:56.777Z,21.66
2023-03-18T09:30:33.889Z,21.52
2023-03-18T09:33:02.467Z,21.31
2023-03-18T09:35:35.516Z,21.40
2023-03-18T09:38:04.882Z,21.40
2023-03-18T09:40:37.912Z,21.43
2023-03-18T09:43:29.774Z,21.61
2023-03-18T09:46:22.087Z,21.79
2023-03-18T09:49:25.993Z,22.01
2023-03-18T09:52:09.998Z,21.91
2023-03-18T09:54:41.437Z,21.93
2023-03-18T09:57:17.536Z,21.92
2023-03-18T09:59:47.958Z,21.97
2023-03-18T10:02:49.739Z,22.06
2023-03-18T10:05:32.805Z,22.09
2023-03-18T10:08:13.222Z,22.22
2023-03-18T10:10:44.094Z,22.25
2023-03-18T10:13:36.806Z,22.35
2023-03-18T10:16:06.148Z,22.62
2023-03-18T10:18:39.783Z,22.64
2023-03-18T10:21:27.794Z,22.80
2023-03-18T10:24:15.388Z,22.86
2023-03-18T10:26:52.667Z,22.44
2023-03-18T10:29:28.431Z,22.44
2023-03-18T10:32:46.341Z,22.61
2023-03-18T10:35:39.150Z,22.68
2023-03-18T10:38:43.365Z,22.76
2023-03-18T10:41:16.190Z,22.76
2023-03-18T10:43:46.119Z,22.77
2023-03-18T10:46:35.929Z,22.87
2023-03-18T10:49:08.221Z,23.00
2023-03-18T10:51:42.097Z,23.09
2023-03-18T10:54:24.280Z,23.23
2023-03-18T10:56:53.557Z,23.24
2023-03-18T10:59:22.885Z,22.98
2023-03-18T11:02:16.272Z,22.84
2023-03-18T11:04:54.538Z,22.63
2023-03-18T11:07:26.042Z,22.64
2023-03-18T11:09:58.033Z,22.73
2023-03-18T11:12:28.828Z,22.70
2023-03-18T11:14:58.086Z,22.68
2023-03-18T11:20:47.572Z,19.17
2023-03-18T11:23:19.182Z,21.30
2023-03-18T11:25:48.684Z,22.17
2023-03-18T11:28:23.402Z,22.52
2023-03-18T11:30:56.198Z,22.59
2023-03-18T11:33:25.836Z,22.86
2023-03-18T11:35:57.645Z,23.48
2023-03-18T11:38:33.600Z,24.24
2023-03-18T11:54:48.542Z,24.95
2023-03-18T11:57:23.993Z,26.45
2023-03-18T12:00:09.837Z,26.24
2023-03-18T12:02:49.950Z,26.62
2023-03-18T12:05:35.530Z,26.79
2023-03-18T12:08:24.502Z,26.46
2023-03-18T12:11:05.468Z,26.51
2023-03-18T12:13:46.765Z,26.67
2023-03-18T12:29:10.004Z,24.96
2023-03-18T12:31:48.869Z,25.88
2023-03-18T12:34:23.050Z,26.11
2023-03-18T12:36:59.741Z,26.45
2023-03-18T12:39:37.067Z,26.39
2023-03-18T12:42:39.101Z,26.18
2023-03-18T12:45:13.448Z,26.29
2023-03-18T12:47:49.860Z,26.25
2023-03-18T12:50:26.045Z,26.46
2023-03-18T12:53:16.550Z,26.55
2023-03-18T12:55:50.383Z,26.23
2023-03-18T12:58:24.763Z,25.87
2023-03-18T13:00:54.709Z,25.91
2023-03-18T13:03:44.859Z,26.09
2023-03-18T13:06:19.076Z,26.45
2023-03-18T13:09:00.562Z,26.74
2023-03-18T13:11:54.707Z,26.91
2023-03-18T13:14:39.433Z,26.40
2023-03-18T13:17:14.022Z,26.40
2023-03-18T13:19:42.185Z,26.03
2023-03-18T13:22:29.141Z,26.03
2023-03-18T13:25:06.130Z,25.87
2023-03-18T13:27:53.328Z,26.05
2023-03-18T13:30:56.919Z,26.19
2023-03-18T13:33:51.095Z,26.15
2023-03-18T13:36:32.004Z,26.13
2023-03-18T13:39:32.814Z,26.11
2023-03-18T13:42:20.621Z,26.31
2023-03-18T13:45:11.037Z,26.11
2023-03-18T13:47:39.330Z,25.43
2023-03-18T13:50:27.169Z,25.29
2023-03-18T13:52:56.034Z,25.46
2023-03-18T13:55:39.804Z,25.21
2023-03-18T13:58:17.683Z,25.18
2023-03-18T14:01:09.214Z,25.20
2023-03-18T14:03:53.443Z,25.32
2023-03-18T14:06:44.766Z,25.38
2023-03-18T14:09:25.393Z,25.88
2023-03-18T14:11:53.767Z,25.95
2023-03-18T14:14:41.881Z,25.87
2023-03-18T14:17:35.477Z,25.26
2023-03-18T14:20:17.563Z,25.38
2023-03-18T14:22:47.294Z,25.52
2023-03-18T14:25:18.107Z,25.41
2023-03-18T14:27:52.293Z,25.42
2023-03-18T14:30:32.433Z,25.49
2023-03-18T14:33:27.066Z,25.36
2023-03-18T14:36:10.103Z,25.25
2023-03-18T14:38:53.160Z,25.28
2023-03-18T14:41:22.690Z,25.07
2023-03-18T14:44:18.604Z,25.00
2023-03-18T14:46:46.793Z,24.93
2023-03-18T14:49:36.063Z,24.73
2023-03-18T14:52:15.891Z,24.66
2023-03-18T14:54:46.128Z,24.72
2023-03-18T14:57:14.486Z,24.61
2023-03-18T14:59:44.819Z,24.49
2023-03-18T15:02:30.621Z,24.45
2023-03-18T15:04:59.436Z,24.33
2023-03-18T15:07:38.230Z,24.14
2023-03-18T15:10:12.855Z,24.16
2023-03-18T15:12:42.820Z,24.04
2023-03-18T15:15:14.785Z,23.97
2023-03-18T15:17:49.204Z,24.21
2023-03-18T15:20:21.975Z,23.94
2023-03-18T15:22:50.464Z,23.79
2023-03-18T15:25:20.749Z,23.70
2023-03-18T15:27:50.115Z,23.59
2023-03-18T15:30:29.266Z,23.41
2023-03-18T15:33:08.216Z,23.55
2023-03-18T15:35:37.617Z,23.57
2023-03-18T15:38:12.350Z,23.26
2023-03-18T15:40:47.947Z,23.15
2023-03-18T15:43:35.706Z,23.29
2023-03-18T15:46:08.128Z,23.36
2023-03-18T15:48:42.229Z,23.33
2023-03-18T15:51:26.959Z,23.09
2023-03-18T15:54:03.506Z,23.40
2023-03-18T15:56:33.433Z,22.94
2023-03-18T15:59:16.064Z,22.99
2023-03-18T16:01:44.285Z,23.12
2023-03-18T16:04:15.200Z,22.88
2023-03-18T16:06:44.480Z,22.83
2023-03-18T16:09:17.405Z,22.93
2023-03-18T16:11:58.459Z,22.62
2023-03-18T16:14:53.306Z,22.63
2023-03-18T16:17:22.235Z,22.41
2023-03-18T16:19:55.257Z,22.28
2023-03-18T16:22:23.370Z,22.27
2023-03-18T16:24:51.897Z,22.42
2023-03-18T16:27:39.500Z,22.25
2023-03-18T16:30:23.455Z,22.09
2023-03-18T16:32:52.261Z,22.08
2023-03-18T16:35:25.504Z,21.93
2023-03-18T16:37:53.686Z,22.01
2023-03-18T16:40:24.855Z,21.68
2023-03-18T16:42:55.532Z,21.61
2023-03-18T16:45:31.264Z,21.60
2023-03-18T16:48:11.128Z,21.46
2023-03-18T16:50:41.736Z,21.56
2023-03-18T16:53:27.826Z,21.75
2023-03-18T16:55:59.844Z,21.67
2023-03-18T16:58:36.594Z,21.84
2023-03-18T17:01:07.799Z,21.93
2023-03-18T17:03:36.644Z,21.91
2023-03-18T17:06:09.342Z,21.75
2023-03-18T17:08:43.216Z,21.63
2023-03-18T17:11:16.394Z,21.44
2023-03-18T17:13:44.923Z,21.21
2023-03-18T17:16:18.218Z,21.13
2023-03-18T17:18:46.254Z,21.23
2023-03-18T17:21:17.088Z,21.22
2023-03-18T17:23:47.789Z,21.53
2023-03-18T17:26:16.493Z,21.50
2023-03-18T17:28:48.736Z,21.24
2023-03-18T17:31:17.538Z,21.05
2023-03-18T17:33:51.249Z,20.59
2023-03-18T17:36:20.765Z,20.74
2023-03-18T17:38:49.120Z,20.80
2023-03-18T17:41:20.190Z,21.00
2023-03-18T17:43:52.907Z,20.99
2023-03-18T17:46:21.142Z,21.25
2023-03-18T17:48:49.892Z,21.05
2023-03-18T17:51:23.677Z,20.82
2023-03-18T17:53:56.830Z,20.93
2023-03-18T17:56:27.070Z,20.69
2023-03-18T17:58:56.638Z,20.76
2023-03-18T18:01:29.139Z,20.80
2023-03-18T18:03:58.079Z,20.48
2023-03-18T18:06:34.419Z,20.28
2023-03-18T18:09:05.998Z,20.37
2023-03-18T18:11:47.105Z,20.52
2023-03-18T18:14:19.321Z,20.67
2023-03-18T18:16:47.839Z,20.28
2023-03-18T18:19:24.445Z,20.40
2023-03-18T18:21:53.448Z,20.49
2023-03-18T18:24:25.813Z,20.32
2023-03-18T18:26:55.108Z,20.58
2023-03-18T18:29:24.463Z,20.12
2023-03-18T18:31:58.710Z,19.71
2023-03-18T18:34:27.996Z,19.58
2023-03-18T18:36:56.330Z,19.96
2023-03-18T18:39:24.648Z,19.66
2023-03-18T18:42:08.278Z,19.67
2023-03-18T18:44:38.736Z,19.79
2023-03-18T18:47:19.963Z,19.47
2023-03-18T18:49:54.116Z,19.85
2023-03-18T18:52:23.193Z,19.96
2023-03-18T18:54:52.260Z,19.66
2023-03-18T18:57:24.792Z,19.60
2023-03-18T18:59:53.451Z,19.32
2023-03-18T19:02:33.780Z,19.20
2023-03-18T19:05:04.730Z,19.25
2023-03-18T19:07:33.833Z,19.03
2023-03-18T19:10:02.124Z,18.82
2023-03-18T19:12:31.086Z,18.69
2023-03-18T19:14:59.871Z,18.52
2023-03-18T19:17:28.459Z,18.91
2023-03-18T19:19:56.902Z,19.07
2023-03-18T19:22:26.258Z,18.95
2023-03-18T19:24:55.026Z,18.94
2023-03-18T19:27:29.526Z,18.89
2023-03-18T19:30:00.451Z,18.46
2023-03-18T19:32:28.618Z,18.13
2023-03-18T19:34:59.465Z,18.03
2023-03-18T19:37:32.529Z,18.07
2023-03-18T19:40:01.088Z,17.48
2023-03-18T19:42:29.814Z,17.37
2023-03-18T19:44:57.921Z,17.16
2023-03-18T19:47:28.252Z,16.83
2023-03-18T19:49:56.945Z,16.60
2023-03-18T19:52:28.423Z,16.04
2023-03-18T19:54:56.566Z,16.08
2023-03-18T19:57:29.424Z,16.31
2023-03-18T20:00:01.356Z,16.55
2023-03-18T20:02:31.424Z,16.65
2023-03-18T20:05:01.733Z,16.53
2023-03-18T20:07:32.559Z,16.64
2023-03-18T20:10:00.913Z,16.77
2023-03-18T20:12:43.719Z,16.57
2023-03-18T20:15:25.333Z,16.33
2023-03-18T20:17:53.581Z,16.24
2023-03-18T20:20:25.748Z,16.12
2023-03-18T20:22:56.789Z,16.17
2023-03-18T20:25:27.056Z,16.51
2023-03-18T20:27:58.358Z,16.42
2023-03-18T20:30:34.404Z,16.15
2023-03-18T20:33:07.651Z,16.08
2023-03-18T20:35:42.882Z,16.20
2023-03-18T20:38:18.955Z,16.26
2023-03-18T20:40:52.790Z,16.35
2023-03-18T20:43:23.100Z,16.02
2023-03-18T20:45:53.183Z,15.88
2023-03-18T20:48:22.826Z,15.50
2023-03-18T20:50:52.516Z,15.59
2023-03-18T20:53:26.451Z,15.27
2023-03-18T20:55:54.945Z,15.37
2023-03-18T20:58:27.523Z,15.32
2023-03-18T21:00:56.918Z,15.31
2023-03-18T21:03:27.598Z,15.25
2023-03-18T21:05:57.380Z,15.34
2023-03-18T21:08:26.136Z,15.29
2023-03-18T21:10:54.634Z,15.40
2023-03-18T21:13:31.120Z,14.72
2023-03-18T21:16:00.797Z,14.54
2023-03-18T21:18:29.203Z,14.44
2023-03-18T21:20:57.777Z,14.33
2023-03-18T21:23:27.763Z,14.47
2023-03-18T21:25:58.393Z,14.53
2023-03-18T21:28:29.638Z,14.30
2023-03-18T21:30:58.778Z,14.76
2023-03-18T21:33:28.008Z,14.81
2023-03-18T21:35:59.645Z,14.61
2023-03-18T21:38:29.522Z,14.53
2023-03-18T21:40:58.744Z,14.56
2023-03-18T21:43:34.783Z,14.67
2023-03-18T21:46:05.451Z,14.97
2023-03-18T21:48:33.790Z,15.19
2023-03-18T21:51:01.905Z,15.23
2023-03-18T21:53:30.225Z,15.30
2023-03-18T21:56:03.542Z,14.85
2023-03-18T21:58:33.962Z,15.00
2023-03-18T22:01:02.147Z,14.81
2023-03-18T22:03:33.207Z,14.71
2023-03-18T22:06:01.306Z,14.85
2023-03-18T22:08:31.276Z,14.89
2023-03-18T22:10:59.572Z,14.94
2023-03-18T22:13:27.751Z,14.80
2023-03-18T22:15:57.781Z,14.47
2023-03-18T22:18:29.392Z,14.65
2023-03-18T22:20:57.433Z,14.57
2023-03-18T22:23:31.273Z,14.37
2023-03-18T22:25:59.779Z,14.47
2023-03-18T22:28:32.445Z,14.23
2023-03-18T22:31:03.315Z,14.27
2023-03-18T22:33:32.691Z,14.35
2023-03-18T22:36:01.431Z,13.67
2023-03-18T22:38:32.987Z,13.76
2023-03-18T22:41:04.977Z,14.05
2023-03-18T22:43:36.337Z,14.21
2023-03-18T22:46:06.608Z,14.30
2023-03-18T22:48:36.675Z,14.71
2023-03-18T22:51:05.576Z,14.89
2023-03-18T22:53:38.452Z,14.79
2023-03-18T22:56:09.254Z,14.90
2023-03-18T22:58:37.564Z,14.43
2023-03-18T23:01:06.789Z,14.39
2023-03-18T23:03:36.459Z,14.27
2023-03-18T23:06:05.162Z,14.62
2023-03-18T23:08:34.362Z,14.74
2023-03-18T23:11:02.604Z,14.64
2023-03-18T23:13:37.074Z,14.47
2023-03-18T23:16:07.298Z,14.69
2023-03-18T23:18:35.636Z,14.72
2023-03-18T23:21:14.030Z,14.83
2023-03-18T23:23:44.005Z,15.09
2023-03-18T23:26:12.623Z,15.07
2023-03-18T23:28:44.880Z,15.09
2023-03-18T23:31:14.820Z,15.43
2023-03-18T23:33:44.976Z,15.63
2023-03-18T23:36:13.457Z,15.71
2023-03-18T23:38:45.487Z,15.75
2023-03-18T23:41:13.587Z,15.68
2023-03-18T23:43:51.136Z,15.26
2023-03-18T23:46:19.693Z,14.98
2023-03-18T23:48:48.159Z,14.97
2023-03-18T23:51:16.344Z,14.72
2023-03-18T23:53:44.852Z,14.84
2023-03-18T23:56:17.422Z,14.72
2023-03-18T23:58:46.804Z,14.74
